Lakemore, Ohio
Current Conditions -  °F | °C
As of 9:54 AM on Thursday 23 Oct 2014 (Local Time) from KAKR Reporting Station
Broken Clouds Broken Clouds  
Wind Chill: 51°   Ceiling: 1400
Heat Index: 51°   Visibility: 10mi
Dew Point: 46°   Wind: 7mph
Humidity: 83%   Direction: 340°NNW
Pressure: 30.2"   Gusts: NA
Location:  41.02°N, 81.44°W
Report Text: KAKR 231354Z AUTO 34006KT 10SM BKN014 11/08 A3020 RMK AO2 SLP228 T01060078
Loading
Personal Weather Stations






























Interactive Weather Map
Tropical Storm Tracking
New forecast layout! Learn more

10-Day Weather Forecast

Advertisements
Track Severe Weather on mobile